Time;durP1;ratioP1;P1;durP2;ratioP2;P2;SDS_P1;SDS_P2;PMS_P1;PMS_P2;Temp;Humidity;BMP_temperature;BMP_pressure;BME280_temperature;BME280_humidity;BME280_pressure;Samples;Min_cycle;Max_cycle;Signal;HPM_P1;HPM_P2
2022/05/29 00:00:07;;;;;;;12.60;11.77;;;6.30;99.90;;;;;;5081820;28;20469;-68
2022/05/29 00:02:34;;;;;;;13.13;12.30;;;6.20;99.90;;;;;;5082407;28;20554;-68
2022/05/29 00:05:01;;;;;;;13.03;12.30;;;6.10;99.90;;;;;;5078144;28;20468;-68
2022/05/29 00:07:28;;;;;;;12.70;11.90;;;6.00;99.90;;;;;;5078610;28;20508;-68
2022/05/29 00:09:55;;;;;;;13.37;12.33;;;6.00;99.90;;;;;;5079855;28;20483;-67
2022/05/29 00:12:24;;;;;;;12.70;12.07;;;6.00;99.90;;;;;;5078108;28;20462;-68
2022/05/29 00:14:52;;;;;;;13.00;11.90;;;6.00;99.90;;;;;;5089135;28;20488;-67
2022/05/29 00:17:20;;;;;;;12.90;12.00;;;6.10;99.90;;;;;;5087036;28;20483;-69
2022/05/29 00:19:48;;;;;;;13.83;12.73;;;6.00;99.90;;;;;;5081529;28;20836;-68
2022/05/29 00:22:17;;;;;;;12.50;11.70;;;6.00;99.90;;;;;;5075650;28;20747;-68
2022/05/29 00:24:46;;;;;;;13.63;12.80;;;5.90;99.90;;;;;;5083505;28;20468;-68
2022/05/29 00:27:16;;;;;;;14.03;13.03;;;5.80;99.90;;;;;;5083352;28;20841;-68
2022/05/29 00:29:45;;;;;;;13.10;12.37;;;5.70;99.90;;;;;;5084691;28;20561;-68
2022/05/29 00:32:13;;;;;;;13.97;13.17;;;5.60;99.90;;;;;;5085890;28;20809;-69
2022/05/29 00:34:41;;;;;;;14.53;13.73;;;5.50;99.90;;;;;;5082310;28;20500;-68
2022/05/29 00:37:10;;;;;;;12.93;12.00;;;5.50;99.90;;;;;;5081847;28;20857;-68
2022/05/29 00:39:38;;;;;;;14.20;13.30;;;5.50;99.90;;;;;;5078728;28;20949;-68
2022/05/29 00:44:50;;;;;;;13.97;12.97;;;5.40;99.90;;;;;;5080944;28;20564;-69
2022/05/29 00:47:19;;;;;;;13.27;12.50;;;5.30;99.90;;;;;;5078652;28;21016;-68
2022/05/29 00:49:49;;;;;;;13.97;13.17;;;5.40;99.90;;;;;;5080436;28;20954;-68
2022/05/29 00:52:19;;;;;;;14.47;13.30;;;5.30;99.90;;;;;;5077665;28;20463;-68
2022/05/29 00:54:53;;;;;;;15.23;14.13;;;5.30;99.90;;;;;;5077845;28;21020;-68
2022/05/29 00:57:26;;;;;;;14.23;13.50;;;5.30;99.90;;;;;;5081498;28;20464;-68
2022/05/29 00:59:55;;;;;;;13.97;13.17;;;5.30;99.90;;;;;;5083036;28;20466;-68
2022/05/29 01:02:22;;;;;;;14.13;13.33;;;5.40;99.90;;;;;;5084890;28;20466;-68
2022/05/29 01:04:49;;;;;;;14.60;13.70;;;5.30;99.90;;;;;;5080542;28;20476;-68
2022/05/29 01:07:19;;;;;;;13.97;13.17;;;5.30;99.90;;;;;;5080381;28;20897;-68
2022/05/29 01:09:49;;;;;;;15.13;14.23;;;5.30;99.90;;;;;;5081119;28;20957;-68
2022/05/29 01:12:28;;;;;;;14.73;13.60;;;5.30;99.90;;;;;;5085358;28;20458;-68
2022/05/29 01:15:05;;;;;;;15.17;14.20;;;5.40;99.90;;;;;;5083235;28;20765;-68
2022/05/29 01:17:40;;;;;;;14.20;13.40;;;5.30;99.90;;;;;;5082125;28;20490;-69
2022/05/29 01:20:25;;;;;;;14.40;13.50;;;5.20;99.90;;;;;;5080798;28;20984;-68
2022/05/29 01:23:08;;;;;;;15.07;14.07;;;5.10;99.90;;;;;;5084443;28;20492;-68
2022/05/29 01:25:54;;;;;;;16.93;15.53;;;5.00;99.90;;;;;;5072967;28;20459;-68
2022/05/29 01:28:45;;;;;;;14.30;13.50;;;5.00;99.90;;;;;;5081287;28;20541;-68
2022/05/29 01:31:15;;;;;;;15.63;14.43;;;5.00;99.90;;;;;;5075196;28;20508;-68
2022/05/29 01:33:46;;;;;;;15.23;14.20;;;5.00;99.90;;;;;;5073948;28;20505;-69
2022/05/29 01:36:21;;;;;;;15.93;14.77;;;5.00;99.90;;;;;;5082294;28;20512;-68
2022/05/29 01:38:55;;;;;;;14.30;13.60;;;5.00;99.90;;;;;;5078876;28;20473;-69
2022/05/29 01:41:27;;;;;;;15.03;14.20;;;5.00;99.90;;;;;;5085032;28;20467;-68
2022/05/29 01:44:02;;;;;;;15.63;14.53;;;5.10;99.90;;;;;;5077061;28;20465;-68
2022/05/29 01:46:33;;;;;;;14.80;13.87;;;5.10;99.90;;;;;;5080713;28;20953;-68
2022/05/29 01:49:07;;;;;;;16.17;15.10;;;5.00;99.90;;;;;;5077639;28;20460;-68
2022/05/29 01:51:39;;;;;;;15.70;14.70;;;5.00;99.90;;;;;;5082503;28;20459;-69
2022/05/29 01:54:13;;;;;;;16.63;15.10;;;5.00;99.90;;;;;;5084975;28;20518;-68
2022/05/29 01:56:45;;;;;;;16.83;15.07;;;5.00;99.90;;;;;;5080667;28;20470;-68
2022/05/29 01:59:18;;;;;;;15.60;14.50;;;5.00;99.90;;;;;;5083065;28;20987;-67
2022/05/29 02:01:50;;;;;;;14.40;13.60;;;5.00;99.90;;;;;;5079478;28;20461;-68
2022/05/29 02:04:21;;;;;;;15.87;14.87;;;5.00;99.90;;;;;;5081521;28;20480;-67
2022/05/29 02:09:44;;;;;;;16.17;15.17;;;4.90;99.90;;;;;;5063697;28;21061;-68
2022/05/29 02:12:16;;;;;;;16.70;15.57;;;4.90;99.90;;;;;;5079513;28;20471;-67
2022/05/29 02:14:54;;;;;;;17.30;14.50;;;4.90;99.90;;;;;;5079588;28;20927;-68
2022/05/29 02:17:25;;;;;;;16.10;14.80;;;5.00;99.90;;;;;;5076085;28;20462;-67
2022/05/29 02:19:57;;;;;;;18.03;15.50;;;5.00;99.90;;;;;;5078441;28;20819;-67
2022/05/29 02:22:28;;;;;;;15.83;14.67;;;5.10;99.90;;;;;;5076633;28;20463;-67
2022/05/29 02:24:58;;;;;;;16.13;14.77;;;5.10;99.90;;;;;;5078196;28;20497;-67
2022/05/29 02:27:31;;;;;;;15.43;14.27;;;5.10;99.90;;;;;;5078872;28;20477;-67
2022/05/29 02:30:03;;;;;;;16.10;15.00;;;5.20;99.90;;;;;;5075233;28;21239;-67
2022/05/29 02:32:39;;;;;;;15.70;14.50;;;5.20;99.90;;;;;;5084350;28;20465;-67
2022/05/29 02:35:11;;;;;;;16.37;14.93;;;5.20;99.90;;;;;;5074728;28;20467;-67
2022/05/29 02:37:45;;;;;;;23.57;14.33;;;5.20;99.90;;;;;;5079995;28;20462;-67
2022/05/29 02:40:22;;;;;;;16.40;14.90;;;5.30;99.90;;;;;;5080492;28;20484;-66
2022/05/29 02:43:01;;;;;;;14.70;13.80;;;5.40;99.90;;;;;;5079127;28;20909;-67
2022/05/29 02:45:35;;;;;;;16.17;14.87;;;5.40;99.90;;;;;;5081133;28;20497;-67
2022/05/29 02:48:10;;;;;;;14.60;13.70;;;5.50;99.90;;;;;;5075115;28;20473;-67
2022/05/29 02:50:44;;;;;;;15.63;14.27;;;5.60;99.90;;;;;;5072678;28;20479;-67
2022/05/29 02:53:13;;;;;;;17.37;16.00;;;5.60;99.90;;;;;;5078454;28;20863;-67
2022/05/29 02:55:42;;;;;;;16.07;15.07;;;5.80;99.90;;;;;;5082703;28;20458;-66
2022/05/29 02:58:18;;;;;;;18.00;16.50;;;5.90;99.90;;;;;;5079259;28;20459;-67
2022/05/29 03:00:59;;;;;;;16.57;15.37;;;6.00;99.90;;;;;;5080714;28;20892;-67
2022/05/29 03:03:33;;;;;;;17.97;16.47;;;6.10;99.90;;;;;;5080221;28;20466;-67
2022/05/29 03:06:13;;;;;;;17.93;16.40;;;6.20;99.90;;;;;;5077167;28;20506;-66
2022/05/29 03:08:53;;;;;;;16.83;15.60;;;6.30;99.90;;;;;;5072300;28;20484;-67
2022/05/29 03:11:27;;;;;;;17.57;16.27;;;6.40;99.90;;;;;;5075919;28;20473;-67
2022/05/29 03:14:03;;;;;;;17.17;15.90;;;6.50;99.90;;;;;;5079207;28;20549;-67
2022/05/29 03:16:41;;;;;;;17.93;16.40;;;6.50;99.90;;;;;;5079109;28;20467;-68
2022/05/29 03:19:17;;;;;;;16.60;15.10;;;6.50;99.90;;;;;;5076941;28;20825;-67
2022/05/29 03:21:51;;;;;;;16.77;15.67;;;6.70;99.90;;;;;;5078103;28;20807;-67
2022/05/29 03:24:24;;;;;;;17.13;15.73;;;6.70;99.90;;;;;;5077209;28;20831;-67
2022/05/29 03:26:58;;;;;;;18.00;16.47;;;6.70;99.90;;;;;;5073528;28;20467;-66
2022/05/29 03:29:33;;;;;;;18.90;17.30;;;6.70;99.90;;;;;;5070118;28;20796;-67
2022/05/29 03:32:02;;;;;;;17.43;16.20;;;6.80;99.90;;;;;;5077104;28;20473;-67
2022/05/29 03:34:30;;;;;;;17.13;15.63;;;6.80;99.90;;;;;;5080354;28;20468;-67
2022/05/29 03:36:57;;;;;;;16.90;15.47;;;6.80;99.90;;;;;;5071620;28;20469;-67
2022/05/29 03:39:24;;;;;;;18.07;16.80;;;6.90;99.90;;;;;;5079538;28;20473;-67
2022/05/29 03:41:53;;;;;;;18.23;16.90;;;6.90;99.90;;;;;;5084631;28;20479;-67
2022/05/29 03:44:22;;;;;;;17.70;16.20;;;7.00;99.90;;;;;;5082596;28;20558;-67
2022/05/29 03:46:50;;;;;;;17.60;16.23;;;7.10;99.90;;;;;;5085272;28;20842;-67
2022/05/29 03:49:20;;;;;;;18.90;17.10;;;7.20;99.90;;;;;;5081464;28;20473;-67
2022/05/29 03:51:48;;;;;;;17.83;16.03;;;7.20;99.90;;;;;;5082309;28;20830;-67
2022/05/29 03:54:15;;;;;;;17.47;15.97;;;7.20;99.90;;;;;;5085259;28;20468;-67
2022/05/29 03:56:42;;;;;;;19.00;15.60;;;7.40;99.90;;;;;;5084056;28;20960;-66
2022/05/29 03:59:09;;;;;;;18.50;17.13;;;7.30;99.90;;;;;;5079671;28;20471;-67
2022/05/29 04:01:36;;;;;;;25.00;17.67;;;7.50;99.90;;;;;;5072729;28;20461;-67
2022/05/29 04:04:04;;;;;;;16.97;15.63;;;7.60;99.90;;;;;;5053904;28;20599;-67
2022/05/29 04:06:34;;;;;;;17.13;15.27;;;7.70;99.90;;;;;;5048984;28;20547;-68
2022/05/29 04:12:05;;;;;;;17.63;15.93;;;7.70;99.90;;;;;;5050796;28;20828;-67
2022/05/29 04:14:33;;;;;;;17.53;15.90;;;7.70;99.90;;;;;;5051614;28;21094;-67
2022/05/29 04:17:00;;;;;;;17.60;15.47;;;7.80;99.90;;;;;;5051154;28;20454;-68
2022/05/29 04:19:27;;;;;;;15.37;14.17;;;7.90;99.90;;;;;;5051769;28;20947;-67
2022/05/29 04:21:56;;;;;;;16.10;14.67;;;7.90;99.90;;;;;;5052106;28;20964;-68
2022/05/29 04:24:23;;;;;;;15.97;14.37;;;7.90;99.90;;;;;;5051174;28;20831;-67
2022/05/29 04:26:50;;;;;;;16.20;14.80;;;8.00;99.90;;;;;;5050684;28;20990;-68
2022/05/29 04:29:18;;;;;;;19.30;13.37;;;8.10;99.90;;;;;;5049681;28;20990;-67
2022/05/29 04:34:27;;;;;;;16.03;13.53;;;8.30;99.90;;;;;;5051094;28;20807;-67
2022/05/29 04:36:55;;;;;;;16.83;13.90;;;8.20;99.90;;;;;;5050698;28;20840;-68
2022/05/29 04:39:22;;;;;;;16.90;14.20;;;8.20;99.90;;;;;;5051502;28;21086;-67
2022/05/29 04:41:49;;;;;;;18.00;14.07;;;8.20;99.90;;;;;;5051950;28;20806;-67
2022/05/29 04:44:16;;;;;;;17.43;14.10;;;8.40;99.90;;;;;;5052045;28;20956;-67
2022/05/29 04:46:43;;;;;;;17.33;13.80;;;8.50;99.90;;;;;;5050830;28;20581;-69
2022/05/29 04:49:10;;;;;;;15.03;13.50;;;8.60;99.90;;;;;;5051176;28;20471;-67
2022/05/29 04:51:37;;;;;;;13.13;12.00;;;8.60;99.90;;;;;;5050833;28;20465;-68
2022/05/29 04:54:06;;;;;;;12.70;10.83;;;8.80;99.90;;;;;;5050941;28;20475;-68
2022/05/29 04:56:33;;;;;;;13.67;12.33;;;8.70;99.90;;;;;;5050213;28;20458;-67
2022/05/29 04:59:00;;;;;;;12.30;10.93;;;8.70;99.90;;;;;;5051344;28;20557;-67
2022/05/29 05:01:27;;;;;;;11.70;10.63;;;8.70;99.90;;;;;;5051965;28;20454;-67
2022/05/29 05:03:54;;;;;;;11.47;10.47;;;8.80;99.90;;;;;;5051426;28;20475;-68
2022/05/29 05:06:21;;;;;;;11.47;10.47;;;8.90;99.90;;;;;;5051730;28;20549;-67
2022/05/29 05:08:48;;;;;;;11.00;9.97;;;9.10;99.90;;;;;;5049827;28;20824;-67
2022/05/29 05:11:16;;;;;;;10.00;9.10;;;9.20;99.90;;;;;;5050583;28;20470;-68
2022/05/29 05:13:43;;;;;;;14.30;10.40;;;9.20;99.90;;;;;;5049057;28;20465;-68
2022/05/29 05:16:10;;;;;;;18.20;10.57;;;9.10;99.90;;;;;;5050724;28;20474;-67
2022/05/29 05:18:37;;;;;;;10.27;9.37;;;9.10;99.90;;;;;;5051094;28;20558;-67
2022/05/29 05:21:06;;;;;;;11.60;10.40;;;9.20;99.90;;;;;;5050424;28;20459;-68
2022/05/29 05:23:33;;;;;;;15.60;10.80;;;9.30;99.90;;;;;;5050325;28;20467;-68
2022/05/29 05:26:00;;;;;;;21.90;10.30;;;9.50;99.90;;;;;;5049350;28;20505;-68
2022/05/29 05:28:29;;;;;;;13.53;10.03;;;9.60;99.90;;;;;;5048616;28;20458;-68
2022/05/29 05:30:57;;;;;;;14.50;10.50;;;9.90;99.90;;;;;;5049059;28;20927;-68
2022/05/29 05:33:25;;;;;;;17.83;11.07;;;9.90;99.90;;;;;;5050039;28;20469;-67
2022/05/29 05:35:51;;;;;;;11.23;10.13;;;10.00;99.90;;;;;;5050106;28;20455;-68
2022/05/29 05:38:18;;;;;;;12.07;10.00;;;10.00;99.90;;;;;;5048589;28;20474;-67
2022/05/29 05:40:45;;;;;;;13.20;10.30;;;10.20;99.90;;;;;;5050246;28;20486;-68
2022/05/29 05:43:12;;;;;;;10.40;8.90;;;10.40;99.90;;;;;;5048530;28;20896;-68
2022/05/29 05:45:42;;;;;;;11.10;9.93;;;10.40;99.90;;;;;;5050174;28;20490;-68
2022/05/29 05:48:09;;;;;;;19.80;10.47;;;10.40;99.90;;;;;;5049517;28;20488;-67
2022/05/29 05:50:39;;;;;;;14.70;10.47;;;10.50;99.90;;;;;;5049102;28;20466;-68
2022/05/29 05:53:07;;;;;;;11.53;10.63;;;10.20;99.90;;;;;;5048137;28;20469;-68
2022/05/29 05:55:36;;;;;;;14.80;10.50;;;10.10;99.90;;;;;;5050209;28;20481;-68
2022/05/29 05:58:03;;;;;;;15.07;11.80;;;10.20;99.90;;;;;;5049050;28;20475;-68
2022/05/29 06:00:30;;;;;;;13.43;10.23;;;10.20;99.90;;;;;;5047125;28;20500;-68
2022/05/29 06:02:58;;;;;;;11.67;10.77;;;10.40;99.90;;;;;;5044025;28;20481;-69
2022/05/29 06:05:26;;;;;;;13.70;12.30;;;10.50;99.90;;;;;;5047385;28;20537;-68
2022/05/29 06:07:53;;;;;;;12.57;10.87;;;10.70;99.90;;;;;;5047307;28;20465;-69
2022/05/29 06:10:20;;;;;;;11.67;10.70;;;10.80;99.90;;;;;;5046220;28;20492;-68
2022/05/29 06:12:47;;;;;;;13.73;11.00;;;10.90;99.90;;;;;;5046674;28;20466;-67
2022/05/29 06:15:14;;;;;;;11.27;10.50;;;10.90;99.90;;;;;;5046850;28;20475;-68
2022/05/29 06:17:40;;;;;;;12.13;11.10;;;11.10;99.90;;;;;;5047586;28;20459;-68
2022/05/29 06:20:11;;;;;;;12.33;11.03;;;10.90;99.90;;;;;;5047773;28;21075;-68
2022/05/29 06:22:38;;;;;;;14.80;11.53;;;11.10;99.90;;;;;;5047712;28;20489;-69
2022/05/29 06:25:07;;;;;;;12.10;10.90;;;11.20;99.90;;;;;;5047625;28;20976;-67
2022/05/29 06:27:36;;;;;;;20.43;11.20;;;11.20;99.90;;;;;;5046751;28;20463;-68
2022/05/29 06:30:04;;;;;;;13.10;11.70;;;11.20;99.90;;;;;;5047416;28;20462;-67
2022/05/29 06:32:31;;;;;;;12.50;11.10;;;11.40;99.90;;;;;;5047305;28;21094;-68
2022/05/29 06:34:59;;;;;;;12.87;11.80;;;11.40;99.90;;;;;;5045276;28;20467;-68
2022/05/29 06:37:27;;;;;;;14.23;10.63;;;11.30;99.90;;;;;;5045695;28;20594;-68
2022/05/29 06:39:54;;;;;;;13.67;10.73;;;11.30;99.90;;;;;;5046427;28;20469;-67
2022/05/29 06:42:20;;;;;;;16.00;14.33;;;11.20;99.90;;;;;;5046977;28;20988;-67
2022/05/29 06:44:47;;;;;;;16.53;15.10;;;11.30;99.90;;;;;;5046868;28;20486;-68
2022/05/29 06:47:15;;;;;;;16.93;14.83;;;11.20;99.90;;;;;;5046627;28;20999;-69
2022/05/29 06:49:42;;;;;;;18.10;16.50;;;11.00;99.90;;;;;;5045995;28;20561;-68
2022/05/29 06:52:11;;;;;;;18.80;17.23;;;11.20;99.90;;;;;;5045893;28;20828;-69
2022/05/29 06:54:40;;;;;;;20.90;18.80;;;11.30;99.90;;;;;;5047145;28;20513;-66
2022/05/29 06:57:10;;;;;;;18.47;16.90;;;11.40;99.90;;;;;;5074816;28;20474;-68
2022/05/29 07:06:59;;;;;;;19.40;17.80;;;11.40;99.90;;;;;;5076575;28;20463;-67
2022/05/29 07:08:01;;;;;;;18.37;16.63;;;11.50;99.90;;;;;;5046933;28;20466;-68
2022/05/29 07:10:32;;;;;;;17.80;16.20;;;11.40;99.90;;;;;;5046112;28;20483;-69
2022/05/29 07:13:01;;;;;;;18.60;15.30;;;11.30;99.90;;;;;;5074177;28;20451;-67
2022/05/29 07:15:29;;;;;;;17.63;16.00;;;11.30;99.90;;;;;;5069774;28;20471;-68
2022/05/29 07:17:56;;;;;;;16.80;15.00;;;11.20;99.90;;;;;;5044995;28;20463;-67
2022/05/29 07:20:23;;;;;;;17.90;14.17;;;11.10;99.90;;;;;;5045106;28;21465;-68
2022/05/29 07:22:50;;;;;;;18.47;13.83;;;11.00;99.90;;;;;;5047256;28;20459;-66
2022/05/29 07:25:17;;;;;;;14.67;13.30;;;11.00;99.90;;;;;;5045424;28;20583;-66
2022/05/29 07:27:45;;;;;;;13.70;12.50;;;10.90;99.90;;;;;;5045525;28;21253;-67
2022/05/29 07:30:13;;;;;;;18.53;15.00;;;10.90;99.90;;;;;;5046792;28;20465;-67
2022/05/29 07:32:41;;;;;;;20.80;18.53;;;11.10;99.90;;;;;;5045783;28;20463;-67
2022/05/29 07:35:09;;;;;;;19.60;18.20;;;11.30;99.90;;;;;;5044968;28;20459;-69
2022/05/29 07:37:37;;;;;;;20.20;18.00;;;11.30;99.90;;;;;;5045048;28;20809;-67
2022/05/29 07:40:04;;;;;;;20.60;16.70;;;11.60;99.90;;;;;;5046659;28;20470;-66
2022/05/29 07:45:17;;;;;;;18.63;17.23;;;11.80;99.90;;;;;;5046821;28;20489;-69
2022/05/29 07:47:45;;;;;;;16.73;15.17;;;11.80;99.90;;;;;;5046111;28;20498;-71
2022/05/29 07:50:15;;;;;;;13.90;12.90;;;11.80;99.90;;;;;;5046224;28;20454;-66
2022/05/29 07:52:41;;;;;;;12.57;11.47;;;11.80;99.90;;;;;;5046111;28;20837;-67
2022/05/29 07:55:09;;;;;;;15.80;11.60;;;11.60;99.90;;;;;;5046637;28;21152;-68
2022/05/29 07:57:36;;;;;;;12.07;11.17;;;11.90;99.90;;;;;;5045922;28;20459;-67
2022/05/29 08:00:05;;;;;;;13.03;10.53;;;11.80;99.90;;;;;;5044665;28;22612;-67
2022/05/29 08:02:34;;;;;;;16.47;10.93;;;12.00;99.90;;;;;;5043915;28;20466;-66
2022/05/29 08:05:01;;;;;;;11.23;10.30;;;12.60;99.90;;;;;;5046229;28;20888;-67
2022/05/29 08:07:28;;;;;;;12.67;11.13;;;13.00;99.90;;;;;;5045377;28;20485;-67
2022/05/29 08:09:55;;;;;;;13.17;12.00;;;13.30;99.90;;;;;;5046115;28;20491;-68
2022/05/29 08:12:22;;;;;;;14.33;13.30;;;14.00;99.90;;;;;;5046710;28;20852;-66
2022/05/29 08:14:50;;;;;;;14.07;13.10;;;14.30;99.90;;;;;;5043502;28;20509;-67
2022/05/29 08:17:17;;;;;;;14.87;13.40;;;14.60;99.90;;;;;;5042828;28;20458;-66
2022/05/29 08:19:45;;;;;;;14.37;13.27;;;15.30;99.90;;;;;;5045276;28;20455;-67
2022/05/29 08:22:12;;;;;;;14.30;13.50;;;15.40;99.90;;;;;;5045840;28;20465;-67
2022/05/29 08:33:00;;;;;;;14.10;13.20;;;14.70;99.90;;;;;;5050368;28;21087;-68
2022/05/29 08:35:30;;;;;;;13.87;12.57;;;15.50;99.90;;;;;;5049159;28;20457;-69
2022/05/29 08:37:57;;;;;;;13.90;12.70;;;15.50;99.90;;;;;;5048933;28;20554;-69
2022/05/29 08:40:25;;;;;;;13.10;12.10;;;15.80;99.90;;;;;;5049853;28;20469;-69
2022/05/29 08:42:53;;;;;;;13.40;12.57;;;16.20;99.90;;;;;;5049652;28;20467;-69
2022/05/29 08:45:20;;;;;;;13.20;12.03;;;15.90;99.90;;;;;;5049122;28;20487;-67
2022/05/29 08:47:47;;;;;;;13.67;12.57;;;16.80;99.90;;;;;;5048555;28;20474;-67
2022/05/29 08:50:20;;;;;;;13.57;12.63;;;17.20;99.90;;;;;;5049548;28;20661;-68
2022/05/29 08:53:00;;;;;;;14.50;13.33;;;17.90;99.90;;;;;;5049886;28;20816;-68
2022/05/29 08:55:30;;;;;;;13.97;12.93;;;17.40;99.90;;;;;;5048826;28;20473;-69
2022/05/29 08:58:06;;;;;;;15.50;13.47;;;17.00;99.90;;;;;;5048228;28;20540;-69
2022/05/29 09:00:51;;;;;;;14.17;13.30;;;16.80;99.90;;;;;;5048249;28;20937;-69
2022/05/29 09:03:36;;;;;;;15.03;14.10;;;16.10;99.90;;;;;;5048350;28;20463;-69
2022/05/29 09:06:09;;;;;;;14.60;13.80;;;15.60;99.90;;;;;;5048884;28;20556;-69
2022/05/29 09:08:41;;;;;;;14.60;13.43;;;16.80;99.90;;;;;;5049964;28;20467;-69
2022/05/29 09:11:13;;;;;;;15.67;14.50;;;16.80;99.90;;;;;;5049023;28;20923;-69
2022/05/29 09:13:45;;;;;;;13.97;13.07;;;17.00;99.90;;;;;;5048360;28;21142;-69
2022/05/29 09:16:16;;;;;;;14.23;13.23;;;16.70;99.90;;;;;;5049265;28;20467;-68
2022/05/29 09:18:51;;;;;;;14.97;13.83;;;16.20;99.90;;;;;;5048803;28;20576;-69
2022/05/29 09:21:19;;;;;;;14.10;13.10;;;16.70;99.90;;;;;;5047210;28;20465;-68
2022/05/29 09:23:58;;;;;;;14.50;13.40;;;17.00;99.90;;;;;;5049625;28;21220;-67
2022/05/29 09:26:30;;;;;;;15.67;14.07;;;16.90;99.90;;;;;;5048349;28;20479;-66
2022/05/29 09:28:58;;;;;;;15.37;14.17;;;16.50;99.90;;;;;;5048965;28;20458;-67
2022/05/29 09:31:26;;;;;;;14.07;13.17;;;15.90;99.90;;;;;;5048601;28;20499;-66
2022/05/29 09:33:53;;;;;;;13.97;13.17;;;15.60;99.90;;;;;;5048237;28;20834;-66
2022/05/29 09:36:28;;;;;;;14.57;13.40;;;15.20;99.90;;;;;;5049077;28;20731;-65
2022/05/29 09:38:59;;;;;;;14.57;13.50;;;14.60;99.90;;;;;;5047055;28;20939;-65
2022/05/29 09:41:30;;;;;;;14.10;13.10;;;14.80;99.90;;;;;;5048682;28;20475;-66
2022/05/29 09:44:13;;;;;;;13.53;12.67;;;15.20;99.90;;;;;;5047204;28;20481;-66
2022/05/29 09:46:42;;;;;;;14.37;13.20;;;16.50;99.90;;;;;;5047990;28;20594;-66
2022/05/29 09:52:05;;;;;;;13.03;12.30;;;17.50;99.90;;;;;;5048223;28;20469;-67
2022/05/29 09:54:37;;;;;;;13.70;12.80;;;16.70;99.90;;;;;;5048957;28;20467;-67
2022/05/29 09:57:09;;;;;;;13.40;12.70;;;15.90;99.90;;;;;;5047339;28;20593;-65
2022/05/29 09:59:39;;;;;;;13.90;12.67;;;15.80;99.90;;;;;;5048045;28;20469;-67
2022/05/29 10:02:12;;;;;;;13.93;13.10;;;16.00;99.90;;;;;;5047496;28;20858;-67
2022/05/29 10:04:41;;;;;;;14.20;13.10;;;15.80;99.90;;;;;;5047495;28;20447;-67
2022/05/29 10:07:15;;;;;;;13.50;12.70;;;16.00;99.90;;;;;;5047297;28;20525;-66
2022/05/29 10:10:01;;;;;;;12.77;12.17;;;16.40;99.90;;;;;;5045216;28;21020;-66
2022/05/29 10:12:41;;;;;;;13.30;12.50;;;17.10;99.90;;;;;;5047659;28;20738;-67
2022/05/29 10:15:15;;;;;;;13.67;12.63;;;17.40;99.90;;;;;;5047414;28;20799;-68
2022/05/29 10:17:43;;;;;;;13.03;12.30;;;17.00;99.90;;;;;;5047218;28;20470;-67
2022/05/29 10:20:29;;;;;;;12.60;12.00;;;16.50;99.90;;;;;;5047434;28;20451;-70
2022/05/29 10:22:56;;;;;;;13.30;12.40;;;15.40;99.90;;;;;;5047698;28;20562;-69
2022/05/29 10:25:27;;;;;;;12.67;11.87;;;15.00;99.90;;;;;;5046618;28;20977;-66
2022/05/29 10:27:56;;;;;;;13.23;12.33;;;14.60;99.90;;;;;;5048235;28;20491;-67
2022/05/29 10:30:34;;;;;;;12.47;11.67;;;14.40;99.90;;;;;;5046532;28;20528;-68
2022/05/29 10:33:05;;;;;;;13.10;12.20;;;14.30;99.90;;;;;;5047804;28;20481;-68
2022/05/29 10:35:35;;;;;;;12.83;12.10;;;14.10;99.90;;;;;;5046423;28;20470;-67
2022/05/29 10:38:26;;;;;;;12.17;11.47;;;13.90;99.90;;;;;;5048431;28;20473;-67
2022/05/29 10:40:56;;;;;;;12.03;11.37;;;13.80;99.90;;;;;;5048166;28;20469;-66
2022/05/29 10:43:39;;;;;;;10.00;9.43;;;13.70;99.90;;;;;;5048108;28;20462;-67
2022/05/29 10:46:07;;;;;;;9.00;8.40;;;13.60;99.90;;;;;;5047768;28;20482;-69
2022/05/29 10:48:52;;;;;;;9.57;9.10;;;14.30;99.90;;;;;;5048182;28;20502;-68
2022/05/29 10:51:23;;;;;;;9.70;9.20;;;14.50;99.90;;;;;;5046992;28;20477;-68
2022/05/29 10:54:17;;;;;;;10.57;10.03;;;14.60;99.90;;;;;;5048298;28;20474;-67
2022/05/29 10:57:01;;;;;;;10.40;10.00;;;15.00;99.90;;;;;;5048304;28;20471;-67
2022/05/29 10:59:48;;;;;;;10.70;10.30;;;14.70;99.90;;;;;;5070979;28;20466;-66
2022/05/29 11:05:27;;;;;;;11.00;10.53;;;14.80;99.90;;;;;;5075000;28;20487;-67
2022/05/29 11:08:18;;;;;;;11.67;11.07;;;15.00;99.90;;;;;;5062289;28;20763;-67
2022/05/29 11:11:03;;;;;;;11.10;10.70;;;15.60;99.90;;;;;;5046106;28;21016;-66
2022/05/29 11:13:53;;;;;;;11.80;11.30;;;16.30;99.90;;;;;;5046617;28;21010;-69
2022/05/29 11:16:31;;;;;;;12.03;11.50;;;16.60;99.90;;;;;;5064867;28;20466;-67
2022/05/29 11:19:46;;;;;;;11.67;11.17;;;16.80;99.90;;;;;;5052973;28;20467;-67
2022/05/29 11:22:21;;;;;;;11.70;11.20;;;16.80;99.90;;;;;;5046006;28;21049;-67
2022/05/29 11:25:04;;;;;;;11.90;11.30;;;17.70;99.90;;;;;;5046685;28;20821;-67
2022/05/29 11:27:51;;;;;;;12.50;12.00;;;18.90;99.90;;;;;;5046761;28;20504;-67
2022/05/29 11:30:24;;;;;;;11.90;11.40;;;19.90;96.50;;;;;;5047176;28;20472;-67
2022/05/29 11:33:19;;;;;;;12.50;11.90;;;20.50;94.70;;;;;;5048868;28;20860;-65
2022/05/29 11:36:05;;;;;;;12.40;11.90;;;21.00;94.20;;;;;;5050758;28;20462;-67
2022/05/29 11:38:49;;;;;;;13.03;12.33;;;21.10;95.00;;;;;;5046836;28;20463;-67
2022/05/29 11:41:22;;;;;;;12.47;11.80;;;20.70;95.20;;;;;;5048213;28;20470;-66
2022/05/29 11:43:57;;;;;;;12.77;12.17;;;20.10;94.00;;;;;;5047978;28;21035;-67
2022/05/29 11:52:19;;;;;;;12.17;11.50;;;19.00;96.30;;;;;;5043064;28;20493;-70
2022/05/29 11:54:55;;;;;;;11.73;11.23;;;18.60;96.20;;;;;;5048650;28;21603;-68
2022/05/29 11:57:30;;;;;;;12.20;11.60;;;17.80;96.70;;;;;;5046434;28;20852;-68
2022/05/29 12:00:02;;;;;;;11.90;11.30;;;17.40;98.30;;;;;;5046074;28;20790;-68
2022/05/29 12:02:38;;;;;;;11.30;10.57;;;18.00;97.00;;;;;;5048281;28;20467;-69
2022/05/29 12:05:20;;;;;;;12.30;11.70;;;19.30;94.40;;;;;;5051082;28;20469;-69
2022/05/29 12:07:53;;;;;;;11.50;10.97;;;20.50;92.80;;;;;;5050463;28;21158;-70
2022/05/29 12:10:23;;;;;;;12.53;11.83;;;21.20;92.50;;;;;;5049879;28;20506;-70
2022/05/29 12:12:57;;;;;;;11.83;11.33;;;22.40;90.50;;;;;;5051139;28;20594;-69
2022/05/29 12:15:25;;;;;;;12.27;11.63;;;23.10;88.90;;;;;;5050455;28;20548;-71
2022/05/29 12:17:57;;;;;;;12.10;11.50;;;22.40;90.60;;;;;;5050711;28;20491;-69
2022/05/29 12:20:41;;;;;;;14.40;13.60;;;21.00;91.60;;;;;;5049916;28;20600;-68
2022/05/29 12:23:19;;;;;;;20.30;18.90;;;19.50;98.10;;;;;;5050407;28;20467;-68
2022/05/29 12:25:53;;;;;;;22.63;21.23;;;17.90;99.90;;;;;;5050328;28;20467;-68
2022/05/29 12:28:28;;;;;;;25.60;23.73;;;17.60;99.90;;;;;;5049371;28;20493;-68
2022/05/29 12:30:57;;;;;;;24.57;22.87;;;16.80;99.90;;;;;;5067419;28;20476;-69
2022/05/29 12:33:27;;;;;;;23.13;21.60;;;16.60;99.90;;;;;;5070901;28;20955;-68
2022/05/29 12:36:16;;;;;;;26.53;24.60;;;16.00;99.90;;;;;;5050746;28;20681;-69
2022/05/29 12:38:57;;;;;;;31.90;29.50;;;15.00;99.90;;;;;;5050921;28;20484;-67
2022/05/29 12:41:52;;;;;;;29.90;27.00;;;14.20;99.90;;;;;;5050010;28;20473;-67
2022/05/29 12:44:48;;;;;;;27.03;25.13;;;13.50;99.90;;;;;;5049799;28;21017;-68
2022/05/29 12:47:45;;;;;;;26.77;24.97;;;13.20;99.90;;;;;;5042491;28;21198;-67
2022/05/29 12:50:25;;;;;;;26.23;24.23;;;12.90;99.90;;;;;;5050328;28;20463;-70
2022/05/29 12:53:45;;;;;;;23.93;22.40;;;12.90;99.90;;;;;;5048571;28;21110;-68
2022/05/29 12:56:31;;;;;;;23.80;22.20;;;12.90;99.90;;;;;;4948613;28;20466;-68
2022/05/29 12:59:24;;;;;;;23.80;22.30;;;13.00;99.90;;;;;;5038223;28;20474;-69
2022/05/29 13:02:01;;;;;;;22.20;20.70;;;13.10;99.90;;;;;;5049382;28;20454;-69
2022/05/29 13:05:09;;;;;;;22.80;21.40;;;13.00;99.90;;;;;;5049985;28;20470;-68
2022/05/29 13:08:08;;;;;;;20.60;19.40;;;12.90;99.90;;;;;;5049200;28;20479;-68
2022/05/29 13:10:37;;;;;;;20.07;18.87;;;13.10;99.90;;;;;;5049087;28;20474;-69
2022/05/29 13:13:09;;;;;;;16.93;16.03;;;13.10;99.90;;;;;;5047845;28;20880;-68
2022/05/29 13:15:38;;;;;;;15.03;14.23;;;13.30;99.90;;;;;;5049099;28;20652;-68
2022/05/29 13:18:22;;;;;;;13.63;12.93;;;13.40;99.90;;;;;;5049017;28;21042;-68
2022/05/29 13:21:13;;;;;;;14.30;13.50;;;13.90;99.90;;;;;;5049374;28;20463;-70
2022/05/29 13:23:44;;;;;;;14.30;13.40;;;14.20;99.90;;;;;;5048360;28;20467;-67
2022/05/29 13:26:21;;;;;;;14.90;14.00;;;14.90;99.90;;;;;;5048254;28;21057;-68
2022/05/29 13:29:00;;;;;;;15.63;14.73;;;15.30;99.90;;;;;;5049085;28;21022;-66
2022/05/29 13:31:31;;;;;;;15.40;14.50;;;15.20;99.90;;;;;;5049518;28;20587;-68
2022/05/29 13:34:14;;;;;;;15.97;14.83;;;15.20;99.90;;;;;;5048956;28;20698;-68
2022/05/29 13:37:07;;;;;;;14.53;13.50;;;15.40;99.90;;;;;;5047921;28;20458;-68